Airfield :
LOGIN :

Register | Disclaimer

   EN    FR    IT 

 










Legend :    VFR   Marginal VFR   IFR   Intensive IFR   Very Intensive IFR
Visi :
Ceiling :
>= 8 km
>= 3000ft
5 to 8 km
1000 to 3000 ft
1500m to 5 km
500 to 1000 ft
800 to 1500m
200 to 500 ft
< 800m
< 200 ft
Symbols :   Thunderstorms  Fog  Heavy snow  Heavy precipitations  Wind > 20 kt
SIGMETs :     Misc.  Thunderstorms  Icing  Turbulence  Mountain Waves  Volcanic Ashes






- Airport Elevation : 325 ft
- IATA code : BES


LFRB - Brest

CURRENT METAR :
  • 211100Z AUTO 31011KT 270V340 9999 BKN033 BKN039 BKN240 18/12 Q1016 NOSIG

EXPIRED METARs :
  • 211030Z AUTO 30011KT 9999 FEW035 19/12 Q1015 NOSIG
  • 211000Z AUTO 31010KT 280V350 CAVOK 17/11 Q1015 NOSIG
  • 210930Z AUTO 31009KT 280V350 CAVOK 18/12 Q1015 NOSIG
  • 210900Z AUTO 31012KT 9999 FEW012 SCT220 17/12 Q1015 NOSIG
  • 210830Z AUTO 31010KT 9999 SCT017 OVC037 16/13 Q1015 NOSIG
  • 210800Z AUTO 31011KT 9999 BKN017 BKN022 OVC039 16/14 Q1015 NOSIG
  • 210730Z AUTO 32009KT 280V350 9999 BKN016 BKN030 OVC037 15/14 Q1015 NOSIG
  • 210700Z AUTO 31009KT 9999 FEW008 SCT012 BKN019 15/14 Q1014 NOSIG
  • 210630Z AUTO 32006KT 290V350 9999 FEW012 SCT020 OVC037 15/14 Q1014 NOSIG

TAF TAF LFRB
Valid from the 21 at 06:00 until the 22 at 12:00 UTC


210500Z 2106/2212 34008KT 9999 BKN030
BECMG 2112/2114 28010KT
BECMG 2120/2122 22010KT
BECMG 2200/2202 OVC012
TEMPO 2202/2204 4000 DZRA BKN006
BECMG 2204/2206 OVC006
TEMPO 2204/2212 2000 DZRA OVC003
ATIS : +33 2 98 32 02 71



MET'MAP, your aeronautical weather chart ! - Copyright ORBIFLY December 2007 - Disclaimer

ORBIFLY MET'MAP TEAM :

Programming & Development : Alexandra Zaïnal
Original concept : Baudouin d'Aumeries
Technical & hardware support : Manuel Goepfert
Assistance : Marc-Olivier Méhu




SOURCES & CREDITS :

   NOAA